Aérodrome :
LOGIN :

S'inscrire | Disclaimer

   EN    FR    IT 

 










Légende :    VFR   VFR Marginal   IFR   IFR Intensif   IFR Très Intensif
Visi : 
Plafond : 
>= 8 km
>= 3000ft
5 à 8 km
1000 à 3000 ft
1500m à 5 km
500 à 1000 ft
800 à 1500m
200 à 500 ft
< 800m
< 200 ft
Symboles :   Orages  Brouillard  Fortes neiges  Fortes précipitations  Vent > 20 kt
SIGMETs :   Divers  Orages  Givrage  Turbulence  Onde Orograph.  Cendres Volcan.






- Altitude de l'aérodrome : 299 ft
- Code IATA : EDM


LFRI - La Roche Sur Yon - Les Ajoncs

DERNIER METAR :
  • 170130Z AUTO 20005KT 9999 BKN005 OVC020 16/15 Q1010

METARs EXPIRÉS :
  • 170100Z AUTO 22004KT 9999 SCT006 BKN015 OVC022 16/15 Q1011
  • 170030Z AUTO 23008KT 7000 BKN005 BKN011 OVC016 16/15 Q1011
  • 170000Z AUTO 21007KT 190V260 9999 3900 SCT007 OVC013 16/15 Q1011
  • 162330Z AUTO 22009KT 9999 SCT004 OVC010 16/15 Q1011
  • 162300Z AUTO 22007KT 9999 OVC005 16/16 Q1010
  • 162230Z AUTO 21008KT 180V260 9999 OVC006 16/16 Q1011
  • 162200Z AUTO 21009KT 190V250 9999 OVC005 16/16 Q1011
  • 162130Z AUTO 20006KT 170V240 5000 -DZ BR OVC003 16/16 Q1010
  • 162100Z AUTO 20005KT 3900 BR BKN005 OVC012 16/16 Q1010 TEMPO 2500 RA BKN004 SCT020CB

TAF AMD TAF LFRI
Valide du 16 à 18h jusqu'au 17 à 18h UTC


161819Z 1618/1718 24008KT 9999 SCT009 BKN020
TEMPO 1618/1709 2500 RA BKN004 SCT020CB
PROB30
TEMPO 1709/1715 4500 -SHRA SCT030TCU



MET'MAP, la Météo Aéronautique d'un coup d'oeil ! - Copyright ORBIFLY Décembre 2007 - Disclaimer

ORBIFLY MET'MAP TEAM :

Programmation & Développement : Alexandra Zaïnal
Sur une idée originale de : Baudouin d'Aumeries
Soutien technique & logistique : Manuel Goepfert
Assistance : Marc-Olivier Méhu




SOURCES & CREDITS :

   NOAA